Time;durP1;ratioP1;P1;durP2;ratioP2;P2;SDS_P1;SDS_P2;PMS_P1;PMS_P2;Temp;Humidity;BMP_temperature;BMP_pressure;BME280_temperature;BME280_humidity;BME280_pressure;Samples;Min_cycle;Max_cycle;Signal;HPM_P1;HPM_P2
2023/06/07 00:00:23;;;;;;;21.37;8.23;;;;;;;11.59;100.00;101587.00;5009605;28;20034;-74
2023/06/07 00:02:49;;;;;;;15.83;6.70;;;;;;;11.59;100.00;101592.38;5007722;28;20042;-75
2023/06/07 00:05:14;;;;;;;13.33;6.53;;;;;;;11.53;100.00;101574.22;5008322;28;20025;-75
2023/06/07 00:07:40;;;;;;;22.97;7.93;;;;;;;11.50;100.00;101567.34;5009258;28;20392;-76
2023/06/07 00:10:06;;;;;;;22.17;7.22;;;;;;;11.37;100.00;101559.66;5009293;28;20032;-76
2023/06/07 00:12:33;;;;;;;15.95;7.38;;;;;;;11.43;100.00;101578.78;5013739;28;20395;-75
2023/06/07 00:15:00;;;;;;;;;;;;;;;11.40;100.00;101566.53;5010798;28;20105;-75
2023/06/07 00:17:28;;;;;;;20.40;7.75;;;;;;;11.24;100.00;101556.50;5013852;28;20370;-75
2023/06/07 00:19:55;;;;;;;15.57;8.23;;;;;;;11.16;100.00;101556.38;5010321;28;20026;-76
2023/06/07 00:22:21;;;;;;;17.55;7.97;;;;;;;11.15;100.00;101565.38;5007903;28;20038;-76
2023/06/07 00:24:49;;;;;;;23.73;7.63;;;;;;;11.08;100.00;101574.97;4991484;28;20026;-76
2023/06/07 00:27:15;;;;;;;17.50;7.60;;;;;;;11.07;100.00;101567.94;5014953;28;20033;-75
2023/06/07 00:29:40;;;;;;;16.93;6.50;;;;;;;11.10;100.00;101578.34;5007983;28;20471;-75
2023/06/07 00:32:06;;;;;;;20.47;8.17;;;;;;;11.05;100.00;101580.59;4992302;28;20478;-76
2023/06/07 00:34:31;;;;;;;19.23;7.60;;;;;;;11.01;100.00;101580.06;4990825;28;20053;-76
2023/06/07 00:36:57;;;;;;;;;;;;;;;10.94;100.00;101577.13;5011387;28;20057;-75
2023/06/07 00:39:24;;;;;;;;;;;;;;;10.91;100.00;101593.44;5025006;28;19980;-76
2023/06/07 00:41:51;;;;;;;11.45;6.55;;;;;;;10.92;100.00;101597.78;5007034;28;19921;-75
2023/06/07 00:44:17;;;;;;;;;;;;;;;10.96;100.00;101591.19;4995050;28;20479;-75
2023/06/07 00:46:42;;;;;;;17.88;6.38;;;;;;;10.92;100.00;101591.59;5010091;28;19917;-75
2023/06/07 00:49:10;;;;;;;18.70;6.80;;;;;;;10.91;100.00;101589.91;5022087;28;20028;-76
2023/06/07 00:51:36;;;;;;;30.02;8.05;;;;;;;10.83;100.00;101584.44;5022778;28;20049;-76
2023/06/07 00:54:05;;;;;;;20.92;7.63;;;;;;;10.83;100.00;101584.44;5008559;28;20017;-76
2023/06/07 00:56:31;;;;;;;18.98;8.60;;;;;;;10.84;100.00;101581.66;5007321;28;20038;-75
2023/06/07 00:58:57;;;;;;;18.55;8.30;;;;;;;10.81;100.00;101586.41;5010734;28;20029;-76
2023/06/07 01:01:23;;;;;;;22.98;8.73;;;;;;;10.76;100.00;101577.00;5013176;28;20034;-75
2023/06/07 01:03:51;;;;;;;22.45;8.18;;;;;;;10.86;100.00;101584.16;5008152;28;20030;-76
2023/06/07 01:06:16;;;;;;;20.87;8.40;;;;;;;10.76;100.00;101566.31;4992020;28;20054;-76
2023/06/07 01:08:45;;;;;;;17.75;8.35;;;;;;;10.75;100.00;101569.16;5023811;28;20273;-76
2023/06/07 01:11:14;;;;;;;28.13;9.38;;;;;;;10.69;100.00;101567.88;5003158;28;20033;-75
2023/06/07 01:13:40;;;;;;;20.80;8.85;;;;;;;10.63;100.00;101571.13;5005938;28;20026;-75
2023/06/07 01:16:08;;;;;;;23.35;9.02;;;;;;;10.56;100.00;101576.22;5008914;28;20069;-76
2023/06/07 01:18:34;;;;;;;;;;;;;;;10.56;100.00;101578.03;5007960;28;20025;-76
2023/06/07 01:21:02;;;;;;;;;;;;;;;10.44;100.00;101581.81;5010308;28;19918;-76
2023/06/07 01:23:32;;;;;;;18.35;8.45;;;;;;;10.38;100.00;101588.56;4989856;28;19916;-76
2023/06/07 01:26:00;;;;;;;16.55;8.70;;;;;;;10.38;100.00;101585.91;5020260;28;20577;-76
2023/06/07 01:28:28;;;;;;;21.63;8.57;;;;;;;10.32;100.00;101587.31;5007839;28;20105;-75
2023/06/07 01:30:54;;;;;;;24.60;9.60;;;;;;;10.36;100.00;101590.53;4992268;28;20037;-76
2023/06/07 01:33:20;;;;;;;;;;;;;;;10.35;100.00;101588.88;5008359;28;20080;-76
2023/06/07 01:35:47;;;;;;;;;;;;;;;10.27;100.00;101586.84;4990553;28;19913;-76
2023/06/07 01:38:15;;;;;;;23.30;9.38;;;;;;;10.28;100.00;101588.56;5015040;28;19916;-76
2023/06/07 01:40:42;;;;;;;20.75;9.00;;;;;;;10.20;100.00;101579.53;4990907;28;20042;-75
2023/06/07 01:43:08;;;;;;;22.85;9.85;;;;;;;10.21;100.00;101579.41;5002794;28;20033;-76
2023/06/07 01:45:34;;;;;;;28.10;9.63;;;;;;;10.13;100.00;101577.41;5006579;28;20033;-76
2023/06/07 01:48:00;;;;;;;19.52;8.80;;;;;;;10.07;100.00;101575.34;5007211;28;20033;-76
2023/06/07 01:50:26;;;;;;;21.27;8.68;;;;;;;10.01;100.00;101565.19;5007136;28;20029;-76
2023/06/07 01:52:51;;;;;;;23.93;8.73;;;;;;;10.03;100.00;101563.25;5006988;28;20391;-76
2023/06/07 01:55:17;;;;;;;25.07;9.80;;;;;;;10.03;100.00;101563.25;5019527;28;20402;-75
2023/06/07 01:57:46;;;;;;;29.48;9.07;;;;;;;9.97;100.00;101560.28;5022634;28;20112;-76
2023/06/07 02:00:38;;;;;;;29.83;9.82;;;;;;;9.97;100.00;101561.13;5020183;28;20047;-76
2023/06/07 02:03:16;;;;;;;17.27;8.25;;;;;;;9.89;100.00;101561.81;4991184;28;20587;-76
2023/06/07 02:05:47;;;;;;;25.75;8.98;;;;;;;9.89;100.00;101560.97;5008809;28;20033;-75
2023/06/07 02:08:22;;;;;;;19.58;8.75;;;;;;;9.92;100.00;101568.69;5006769;28;20038;-76
2023/06/07 02:10:48;;;;;;;20.77;8.43;;;;;;;9.93;100.00;101567.72;5013791;28;20026;-75
2023/06/07 02:13:16;;;;;;;22.33;9.25;;;;;;;9.86;100.00;101555.94;5011776;28;20414;-75
2023/06/07 02:15:44;;;;;;;26.00;10.10;;;;;;;9.81;100.00;101560.81;5010325;28;20030;-75
2023/06/07 02:18:11;;;;;;;20.52;8.35;;;;;;;9.80;100.00;101561.81;5023542;28;20032;-76
2023/06/07 02:20:37;;;;;;;31.73;10.98;;;;;;;9.87;100.00;101568.28;4993163;28;20068;-76
2023/06/07 02:23:02;;;;;;;27.13;9.45;;;;;;;9.82;100.00;101570.50;5012416;28;20057;-75
2023/06/07 02:25:28;;;;;;;23.83;10.20;;;;;;;9.82;100.00;101573.19;5010558;28;20022;-75
2023/06/07 02:27:53;;;;;;;21.83;8.93;;;;;;;9.76;100.00;101571.88;4999296;28;20651;-76
2023/06/07 02:30:19;;;;;;;26.95;9.52;;;;;;;9.70;100.00;101562.63;5009472;28;20061;-76
2023/06/07 02:32:53;;;;;;;26.88;8.60;;;;;;;9.65;100.00;101564.88;5010093;28;20088;-76
2023/06/07 02:35:19;;;;;;;21.83;8.02;;;;;;;9.56;100.00;101556.84;5005802;28;20079;-76
2023/06/07 02:37:48;;;;;;;;;;;;;;;9.60;100.00;101561.78;4999807;28;20026;-76
2023/06/07 02:40:14;;;;;;;22.55;8.73;;;;;;;9.60;100.00;101566.22;5021091;28;20385;-74
2023/06/07 02:42:47;;;;;;;28.50;10.63;;;;;;;9.59;100.00;101570.72;4992779;28;20022;-74
2023/06/07 02:45:13;;;;;;;21.42;8.38;;;;;;;9.63;100.00;101577.47;5022133;28;20079;-74
2023/06/07 02:47:39;;;;;;;26.20;10.82;;;;;;;9.60;100.00;101574.22;5015222;28;20029;-74
2023/06/07 02:50:06;;;;;;;33.90;9.52;;;;;;;9.64;100.00;101579.16;5017954;28;20037;-74
2023/06/07 02:52:34;;;;;;;19.40;8.32;;;;;;;9.58;100.00;101576.22;4993611;28;20039;-74
2023/06/07 02:55:01;;;;;;;37.60;10.55;;;;;;;9.56;100.00;101581.69;5012526;28;20080;-74
2023/06/07 02:57:26;;;;;;;26.17;9.60;;;;;;;9.63;100.00;101577.47;4993574;28;20030;-74
2023/06/07 02:59:56;;;;;;;24.53;8.77;;;;;;;9.58;100.00;101578.88;5005795;28;20598;-74
2023/06/07 03:02:25;;;;;;;33.63;9.73;;;;;;;9.55;100.00;101571.97;4994165;28;20028;-74
2023/06/07 03:04:52;;;;;;;23.55;9.18;;;;;;;9.51;100.00;101571.41;5018525;28;20398;-74
2023/06/07 03:07:20;;;;;;;34.22;10.30;;;;;;;9.45;100.00;101568.44;5010481;28;20022;-73
2023/06/07 03:09:47;;;;;;;40.00;11.23;;;;;;;9.56;100.00;101580.84;5008901;28;20486;-73
2023/06/07 03:12:16;;;;;;;32.72;10.40;;;;;;;9.44;100.00;101575.59;5025077;28;20108;-74
2023/06/07 03:14:46;;;;;;;30.95;10.88;;;;;;;9.59;100.00;101591.22;5023451;28;20032;-74
2023/06/07 03:17:15;;;;;;;32.85;10.55;;;;;;;9.65;100.00;101588.84;5006257;28;20044;-73
2023/06/07 03:19:43;;;;;;;33.75;10.98;;;;;;;9.65;100.00;101596.84;5033105;28;20034;-74
2023/06/07 03:22:09;;;;;;;31.05;11.43;;;;;;;9.73;100.00;101599.69;4992874;28;20204;-73
2023/06/07 03:24:38;;;;;;;36.08;10.43;;;;;;;9.84;100.00;101608.56;5018967;28;20471;-73
2023/06/07 03:27:10;;;;;;;29.80;10.43;;;;;;;9.90;100.00;101611.53;5004475;28;20032;-73
2023/06/07 03:29:38;;;;;;;33.55;11.07;;;;;;;9.93;100.00;101599.75;5006210;28;20556;-74
2023/06/07 03:32:05;;;;;;;51.37;13.80;;;;;;;9.97;100.00;101603.81;5024991;28;20515;-74
2023/06/07 03:34:34;;;;;;;42.45;12.80;;;;;;;10.01;100.00;101605.22;5024873;28;20030;-73
2023/06/07 03:37:02;;;;;;;40.20;13.23;;;;;;;10.12;100.00;101610.44;4993774;28;20165;-74
2023/06/07 03:39:27;;;;;;;34.70;11.47;;;;;;;10.10;100.00;101595.56;5013574;28;20030;-73
2023/06/07 03:41:53;;;;;;;34.03;12.18;;;;;;;10.17;100.00;101606.53;5016083;28;20021;-74
2023/06/07 03:44:22;;;;;;;35.30;12.13;;;;;;;10.23;100.00;101597.94;5014587;28;20398;-73
2023/06/07 03:46:48;;;;;;;28.75;10.05;;;;;;;10.17;100.00;101596.69;5017522;28;20025;-73
2023/06/07 03:49:14;;;;;;;38.90;11.50;;;;;;;10.16;100.00;101595.00;5014048;28;20029;-73
2023/06/07 03:51:42;;;;;;;27.02;10.10;;;;;;;10.27;100.00;101602.84;5019819;28;20021;-73
2023/06/07 03:54:08;;;;;;;27.52;11.95;;;;;;;10.26;100.00;101601.19;5022263;28;20034;-73
2023/06/07 03:56:34;;;;;;;30.45;9.70;;;;;;;10.05;100.00;101582.63;5002820;28;20032;-73
2023/06/07 03:59:01;;;;;;;28.07;9.93;;;;;;;10.17;100.00;101598.50;5021525;28;20042;-73
2023/06/07 04:01:28;;;;;;;28.80;10.07;;;;;;;10.17;100.00;101598.50;4998599;28;20171;-73
2023/06/07 04:03:55;;;;;;;19.15;9.27;;;;;;;10.08;100.00;101586.84;5013716;28;20030;-73
2023/06/07 04:06:24;;;;;;;28.53;10.53;;;;;;;10.00;100.00;101589.38;5022498;28;20490;-73
2023/06/07 04:08:56;;;;;;;27.67;10.07;;;;;;;9.91;100.00;101588.38;4992318;28;20037;-73
2023/06/07 04:11:24;;;;;;;71.00;11.85;;;;;;;9.73;100.00;101589.00;5011590;28;20339;-74
2023/06/07 04:13:49;;;;;;;25.77;11.23;;;;;;;9.76;100.00;101593.22;5015750;28;20147;-74
2023/06/07 04:16:15;;;;;;;27.27;11.27;;;;;;;9.94;100.00;101602.25;5005583;28;20124;-74
2023/06/07 04:18:44;;;;;;;38.97;10.55;;;;;;;10.00;100.00;101600.88;5011694;28;20025;-74
2023/06/07 04:21:09;;;;;;;33.90;10.65;;;;;;;10.10;100.00;101606.22;5019823;28;20033;-74
2023/06/07 04:23:37;;;;;;;28.10;11.05;;;;;;;10.18;100.00;101608.19;4991784;28;20026;-73
2023/06/07 04:26:05;;;;;;;25.67;9.95;;;;;;;10.29;100.00;101608.94;5005910;28;20561;-73
2023/06/07 04:28:32;;;;;;;26.55;10.18;;;;;;;10.31;100.00;101598.13;4997504;28;20278;-77
2023/06/07 04:31:00;;;;;;;20.48;9.45;;;;;;;10.19;100.00;101599.22;5010005;28;20061;-74
2023/06/07 04:33:27;;;;;;;29.63;9.30;;;;;;;10.02;100.00;101582.91;4990158;28;20017;-74
2023/06/07 04:35:59;;;;;;;30.80;10.13;;;;;;;10.00;100.00;101570.69;4995222;28;20038;-74
2023/06/07 04:38:25;;;;;;;33.35;10.95;;;;;;;10.09;100.00;101569.84;5007541;28;20111;-74
2023/06/07 04:40:56;;;;;;;21.42;9.88;;;;;;;10.20;100.00;101569.72;5008457;28;20028;-74
2023/06/07 04:43:36;;;;;;;19.35;9.13;;;;;;;10.32;100.00;101565.97;4992004;28;20029;-74
2023/06/07 04:46:03;;;;;;;26.42;8.95;;;;;;;10.40;100.00;101565.25;4993150;28;20447;-74
2023/06/07 04:48:31;;;;;;;23.13;7.95;;;;;;;10.33;100.00;101548.13;5007153;28;20155;-74
2023/06/07 04:51:05;;;;;;;16.95;7.20;;;;;;;10.37;100.00;101544.16;5006221;28;20360;-74
2023/06/07 04:53:36;;;;;;;18.23;8.25;;;;;;;10.45;100.00;101540.81;4990947;28;20048;-74
2023/06/07 04:56:04;;;;;;;21.20;7.88;;;;;;;10.35;100.00;101519.47;5010659;28;20033;-74
2023/06/07 04:58:33;;;;;;;14.88;7.45;;;;;;;10.34;100.00;101518.59;5007116;28;20533;-74
2023/06/07 05:01:02;;;;;;;14.82;7.15;;;;;;;10.52;100.00;101523.22;4992560;28;20117;-74
2023/06/07 05:03:31;;;;;;;17.17;8.93;;;;;;;10.37;100.00;101520.13;5007479;28;20049;-74
2023/06/07 05:06:00;;;;;;;13.13;6.82;;;;;;;10.61;100.00;101530.38;5020144;28;20092;-74
2023/06/07 05:08:27;;;;;;;13.65;7.18;;;;;;;10.52;100.00;101521.41;5023683;28;20025;-74
2023/06/07 05:10:53;;;;;;;12.23;6.50;;;;;;;10.59;100.00;101512.81;5010332;28;20120;-74
2023/06/07 05:13:20;;;;;;;15.70;8.13;;;;;;;10.43;100.00;101500.06;5007843;28;20041;-74
2023/06/07 05:15:45;;;;;;;16.03;7.03;;;;;;;10.49;100.00;101516.34;5007456;28;20486;-74
2023/06/07 05:18:18;;;;;;;14.48;7.57;;;;;;;10.61;100.00;101514.38;5004552;28;20018;-74
2023/06/07 05:20:43;;;;;;;19.95;9.05;;;;;;;10.65;100.00;101515.75;5006733;28;20038;-74
2023/06/07 05:23:09;;;;;;;16.03;9.30;;;;;;;10.89;100.00;101530.47;5021511;28;20119;-74
2023/06/07 05:25:36;;;;;;;20.88;9.23;;;;;;;10.90;100.00;101524.94;5012409;28;20029;-74
2023/06/07 05:28:03;;;;;;;16.70;7.60;;;;;;;10.78;100.00;101510.09;5009852;28;20487;-74
2023/06/07 05:30:30;;;;;;;17.67;8.77;;;;;;;10.51;100.00;101501.03;5007147;28;20040;-74
2023/06/07 05:32:56;;;;;;;16.90;8.38;;;;;;;10.31;100.00;101504.72;5010145;28;20021;-74
2023/06/07 05:35:22;;;;;;;14.60;8.10;;;;;;;10.34;100.00;101509.75;4989687;28;20033;-74
2023/06/07 05:37:49;;;;;;;20.25;8.10;;;;;;;10.09;100.00;101479.97;5008048;28;20069;-74
2023/06/07 05:40:18;;;;;;;17.98;9.65;;;;;;;10.29;100.00;101504.84;4991681;28;20344;-74
2023/06/07 05:42:49;;;;;;;19.35;9.57;;;;;;;10.53;100.00;101507.03;4993636;28;20021;-74
2023/06/07 05:45:14;;;;;;;14.82;8.07;;;;;;;10.57;100.00;101492.44;5033597;28;20065;-74
2023/06/07 05:47:41;;;;;;;19.90;8.00;;;;;;;10.46;100.00;101457.06;5010610;28;20054;-74
2023/06/07 05:50:07;;;;;;;18.13;8.35;;;;;;;10.88;100.00;101476.16;5011890;28;20391;-74
2023/06/07 05:52:32;;;;;;;13.63;7.53;;;;;;;11.28;100.00;101469.63;4994242;28;20022;-74
2023/06/07 05:54:58;;;;;;;15.97;7.10;;;;;;;11.91;100.00;101446.56;5013735;28;20040;-74
2023/06/07 05:57:24;;;;;;;18.45;7.80;;;;;;;12.16;100.00;101389.56;5016408;28;20034;-74
2023/06/07 05:59:50;;;;;;;15.25;7.72;;;;;;;11.66;100.00;101346.50;5013275;28;20442;-74
2023/06/07 06:02:16;;;;;;;12.68;6.97;;;;;;;11.44;100.00;101284.50;5012059;28;20021;-74
2023/06/07 06:04:43;;;;;;;17.85;7.15;;;;;;;11.49;100.00;101300.91;5010572;28;20109;-74
2023/06/07 06:07:09;;;;;;;21.02;8.27;;;;;;;12.28;100.00;101325.06;4994264;28;20026;-74
2023/06/07 06:09:34;;;;;;;13.95;7.00;;;;;;;12.53;100.00;101283.16;5011250;28;20385;-74
2023/06/07 06:12:00;;;;;;;15.52;6.78;;;;;;;12.21;100.00;101228.47;5012335;28;20502;-74
2023/06/07 06:14:27;;;;;;;11.83;7.43;;;;;;;12.35;100.00;101245.78;5015522;28;20029;-74
2023/06/07 06:16:52;;;;;;;17.90;8.05;;;;;;;11.85;100.00;101193.84;5017472;28;20356;-74
2023/06/07 06:19:18;;;;;;;13.37;6.27;;;;;;;12.14;100.00;101283.66;5016508;28;20490;-74
2023/06/07 06:21:43;;;;;;;13.30;7.60;;;;;;;12.30;100.00;101262.31;5014373;28;20924;-75
2023/06/07 06:24:08;;;;;;;11.10;7.30;;;;;;;11.29;100.00;101214.72;5014181;28;20037;-74
2023/06/07 06:26:34;;;;;;;11.93;7.37;;;;;;;11.77;100.00;101336.41;5006651;28;20029;-74
2023/06/07 06:28:59;;;;;;;14.60;7.50;;;;;;;12.23;100.00;101338.91;5016515;28;20045;-74
2023/06/07 06:31:25;;;;;;;13.50;6.57;;;;;;;14.18;100.00;101341.25;5020705;28;20064;-74
2023/06/07 06:33:50;;;;;;;15.40;6.60;;;;;;;14.90;100.00;101005.16;5018104;28;20025;-74
2023/06/07 06:36:17;;;;;;;13.60;6.30;;;;;;;15.49;100.00;100789.03;5016259;28;20052;-74
2023/06/07 06:38:42;;;;;;;11.52;6.05;;;;;;;15.50;100.00;100737.72;5014890;28;20061;-75
2023/06/07 06:41:11;;;;;;;17.83;6.65;;;;;;;15.62;100.00;100625.81;5006524;28;20022;-75
2023/06/07 06:43:37;;;;;;;11.05;5.82;;;;;;;16.85;100.00;100687.84;5014452;28;20026;-75
2023/06/07 06:46:03;;;;;;;15.30;5.65;;;;;;;17.49;100.00;100537.97;4998052;28;20121;-75
2023/06/07 06:48:29;;;;;;;13.80;6.63;;;;;;;18.13;100.00;100411.97;5011516;28;20048;-74
2023/06/07 06:50:55;;;;;;;9.60;4.95;;;;;;;18.54;100.00;100351.09;5024489;28;20025;-74
2023/06/07 06:53:20;;;;;;;10.73;5.97;;;;;;;18.23;99.50;100153.97;5013321;28;20061;-74
2023/06/07 06:55:46;;;;;;;11.77;6.20;;;;;;;18.00;99.10;100230.28;5022617;28;20279;-74
2023/06/07 06:58:11;;;;;;;11.68;5.53;;;;;;;18.73;96.93;100313.22;5006416;28;20654;-74
2023/06/07 07:00:38;;;;;;;14.37;6.00;;;;;;;18.98;92.12;100159.78;5016072;28;20221;-75
2023/06/07 07:03:04;;;;;;;13.75;6.78;;;;;;;17.73;89.53;99907.38;5006614;28;20430;-75
2023/06/07 07:05:30;;;;;;;13.70;6.22;;;;;;;17.60;90.66;100145.06;5009459;28;20161;-75
2023/06/07 07:07:56;;;;;;;19.27;6.80;;;;;;;17.90;91.93;100360.41;5012518;28;20263;-75
2023/06/07 07:10:22;;;;;;;14.20;6.05;;;;;;;18.98;87.56;100307.72;5010927;28;20037;-75
2023/06/07 07:12:47;;;;;;;12.20;6.27;;;;;;;18.68;86.24;100231.97;5010429;28;20415;-75
2023/06/07 07:15:12;;;;;;;18.87;7.47;;;;;;;16.99;85.88;99946.31;5009369;28;20064;-75
2023/06/07 07:17:48;;;;;;;15.40;7.60;;;;;;;15.67;90.84;100200.03;5009505;28;20470;-75
2023/06/07 07:20:16;;;;;;;14.40;7.30;;;;;;;15.23;97.71;100601.38;5016263;28;20144;-75
2023/06/07 07:22:43;;;;;;;14.95;6.38;;;;;;;15.94;100.00;100900.81;5010510;28;20435;-74
2023/06/07 07:25:10;;;;;;;15.32;5.95;;;;;;;16.99;98.99;100936.81;5010462;28;20470;-75
2023/06/07 07:27:35;;;;;;;14.20;5.75;;;;;;;17.77;93.24;100744.75;4992530;28;20026;-75
2023/06/07 07:30:01;;;;;;;13.83;6.00;;;;;;;18.02;90.90;100692.75;5012149;28;20038;-75
2023/06/07 07:32:26;;;;;;;14.13;6.40;;;;;;;16.96;88.91;100310.75;5009565;28;20108;-75
2023/06/07 07:34:51;;;;;;;12.43;6.63;;;;;;;16.43;92.56;100568.53;5009123;28;20049;-75
2023/06/07 07:37:17;;;;;;;12.00;5.17;;;;;;;16.77;95.27;100921.75;4998767;28;20029;-74
2023/06/07 07:39:43;;;;;;;13.73;5.77;;;;;;;18.19;89.84;100772.31;4992518;28;20125;-75
2023/06/07 07:42:08;;;;;;;17.23;6.30;;;;;;;18.50;86.84;100658.03;5010963;28;20034;-75
2023/06/07 07:44:34;;;;;;;13.73;6.55;;;;;;;17.70;84.11;100304.69;5008740;28;20025;-75
2023/06/07 07:47:00;;;;;;;15.95;7.47;;;;;;;16.28;88.63;100403.59;5011903;28;20406;-75
2023/06/07 07:49:25;;;;;;;18.35;6.68;;;;;;;16.67;91.08;100744.19;5007704;28;20072;-75
2023/06/07 07:51:50;;;;;;;19.90;7.60;;;;;;;17.66;88.21;100762.38;5023549;28;20029;-74
2023/06/07 07:54:16;;;;;;;15.87;7.23;;;;;;;18.10;87.92;100825.75;5010700;28;20040;-75
2023/06/07 07:56:43;;;;;;;17.80;6.33;;;;;;;17.29;88.03;100653.22;4995030;28;20489;-75
2023/06/07 07:59:08;;;;;;;17.35;6.80;;;;;;;17.83;88.24;100857.34;5009084;28;20033;-75
2023/06/07 08:01:34;;;;;;;16.17;7.53;;;;;;;18.13;88.38;100916.34;5008515;28;20050;-75
2023/06/07 08:03:59;;;;;;;15.80;6.85;;;;;;;17.55;87.18;100682.03;5009532;28;20046;-74
2023/06/07 08:06:25;;;;;;;15.80;7.57;;;;;;;17.80;87.80;100854.19;5023588;28;20025;-75
2023/06/07 08:08:51;;;;;;;13.90;6.80;;;;;;;18.34;85.69;100834.22;5023026;28;20102;-75
2023/06/07 08:11:17;;;;;;;18.45;7.07;;;;;;;18.23;83.73;100629.50;5014755;28;20103;-75
2023/06/07 08:13:42;;;;;;;13.57;6.40;;;;;;;18.48;84.09;100772.84;5015562;28;20033;-75
2023/06/07 08:16:08;;;;;;;16.03;6.87;;;;;;;18.84;85.62;100982.44;5011267;28;20322;-75
2023/06/07 08:18:33;;;;;;;17.55;6.80;;;;;;;19.31;81.97;100753.84;5008573;28;20284;-75
2023/06/07 08:20:59;;;;;;;15.00;6.50;;;;;;;18.91;80.80;100555.84;5006840;28;20076;-75
2023/06/07 08:23:24;;;;;;;17.00;6.97;;;;;;;19.60;79.55;100673.03;5025448;28;20033;-75
2023/06/07 08:25:49;;;;;;;13.00;6.17;;;;;;;18.41;80.27;100489.06;5015997;28;20111;-75
2023/06/07 08:28:15;;;;;;;10.57;5.80;;;;;;;19.61;78.39;100647.59;5016220;28;20385;-75
2023/06/07 08:30:42;;;;;;;12.73;6.18;;;;;;;19.58;77.28;100539.75;5010475;28;20058;-75
2023/06/07 08:33:07;;;;;;;13.23;6.80;;;;;;;19.16;76.32;100371.81;5008770;28;20034;-76
2023/06/07 08:35:33;;;;;;;17.27;6.83;;;;;;;18.55;76.97;100314.06;5007748;28;20042;-75
2023/06/07 08:38:00;;;;;;;15.30;7.17;;;;;;;19.61;76.17;100542.81;5008843;28;20037;-75
2023/06/07 08:40:26;;;;;;;13.23;5.85;;;;;;;19.63;76.50;100601.34;5006678;28;20081;-75
2023/06/07 08:42:51;;;;;;;13.50;5.80;;;;;;;20.18;74.66;100550.66;5015728;28;20024;-75
2023/06/07 08:45:17;;;;;;;21.83;5.63;;;;;;;20.34;74.22;100522.03;5014044;28;20029;-75
2023/06/07 08:47:44;;;;;;;13.55;5.88;;;;;;;20.09;73.94;100503.25;5013860;28;20549;-75
2023/06/07 08:50:14;;;;;;;22.02;7.25;;;;;;;19.57;73.05;100273.56;5024451;28;20470;-75
2023/06/07 08:52:41;;;;;;;16.00;5.90;;;;;;;20.57;73.20;100586.38;5007562;28;20025;-75
2023/06/07 08:55:12;;;;;;;14.00;5.85;;;;;;;19.85;73.30;100393.97;5012479;28;20061;-76
2023/06/07 08:57:38;;;;;;;12.73;5.28;;;;;;;20.61;71.62;100505.38;5000326;28;20529;-75
2023/06/07 09:00:06;;;;;;;13.02;5.13;;;;;;;20.80;71.59;100563.06;5012774;28;20871;-75
2023/06/07 09:02:33;;;;;;;15.40;5.95;;;;;;;20.86;70.13;100412.88;5005864;28;20030;-75
2023/06/07 09:05:02;;;;;;;17.73;6.30;;;;;;;20.71;68.44;100190.16;5011921;28;20049;-75
2023/06/07 09:07:30;;;;;;;14.18;5.65;;;;;;;20.36;68.98;100186.47;5012546;28;20029;-76
2023/06/07 09:09:55;;;;;;;15.90;6.65;;;;;;;20.64;69.77;100418.09;5018239;28;20419;-75
2023/06/07 09:12:21;;;;;;;15.53;6.33;;;;;;;20.36;68.27;100172.09;5016794;28;20014;-75
2023/06/07 09:14:47;;;;;;;15.38;6.05;;;;;;;21.04;69.48;100521.28;5014757;28;20040;-75
2023/06/07 09:17:12;;;;;;;16.88;6.93;;;;;;;21.84;66.43;100381.13;5015636;28;20095;-76
2023/06/07 09:19:42;;;;;;;10.77;5.17;;;;;;;21.65;65.60;100227.59;5023869;28;20492;-75
2023/06/07 09:22:17;;;;;;;11.57;5.63;;;;;;;21.65;64.48;100165.09;5027540;28;20034;-75
2023/06/07 09:24:42;;;;;;;12.73;5.68;;;;;;;21.67;65.89;100388.44;5019383;28;20026;-75
2023/06/07 09:27:09;;;;;;;13.30;5.65;;;;;;;21.38;64.59;100146.78;5019898;28;20025;-75
2023/06/07 09:29:40;;;;;;;11.57;5.95;;;;;;;22.06;64.97;100377.69;5019726;28;20043;-75
2023/06/07 09:32:25;;;;;;;11.18;5.70;;;;;;;21.89;63.91;100258.94;5010955;28;20025;-76
2023/06/07 09:34:53;;;;;;;11.43;5.68;;;;;;;21.91;63.01;100125.50;5020509;28;20029;-76
2023/06/07 09:37:20;;;;;;;12.27;6.60;;;;;;;22.64;63.07;100384.56;5020745;28;20545;-75
2023/06/07 09:39:51;;;;;;;10.80;4.78;;;;;;;22.46;63.86;100445.50;5028451;28;20444;-75
2023/06/07 09:42:16;;;;;;;13.95;5.70;;;;;;;22.55;60.62;100003.34;5017321;28;20034;-75
2023/06/07 09:44:42;;;;;;;9.98;4.63;;;;;;;23.22;60.46;100267.09;5016207;28;20032;-76
2023/06/07 09:47:20;;;;;;;21.00;5.50;;;;;;;23.02;61.00;100267.75;5008869;28;20033;-75
2023/06/07 09:49:45;;;;;;;9.55;4.05;;;;;;;23.69;60.59;100408.94;5009180;28;20049;-75
2023/06/07 09:52:13;;;;;;;13.23;4.90;;;;;;;23.46;57.90;99981.56;5020425;28;20131;-75
2023/06/07 09:54:43;;;;;;;12.95;4.72;;;;;;;23.62;58.29;100133.13;5020897;28;20915;-75
2023/06/07 09:57:11;;;;;;;14.90;5.05;;;;;;;23.82;56.98;99973.56;5015510;28;20037;-75
2023/06/07 09:59:37;;;;;;;12.45;4.75;;;;;;;23.88;57.64;100128.66;5015743;28;20108;-75
2023/06/07 10:02:24;;;;;;;8.70;4.68;;;;;;;22.62;57.93;99785.50;5015381;28;20749;-76
2023/06/07 10:04:50;;;;;;;10.73;4.38;;;;;;;23.89;58.28;100304.75;5017417;28;20053;-75
2023/06/07 10:07:18;;;;;;;11.23;3.58;;;;;;;24.59;56.19;100220.88;5020224;28;20026;-76
2023/06/07 10:09:45;;;;;;;10.77;4.68;;;;;;;24.38;55.23;99977.16;5019686;28;20036;-76
2023/06/07 10:12:13;;;;;;;12.43;4.15;;;;;;;24.77;55.53;100166.84;5013227;28;20021;-76
2023/06/07 10:14:42;;;;;;;8.07;3.80;;;;;;;25.11;53.85;100024.34;4993303;28;20141;-76
2023/06/07 10:17:11;;;;;;;9.05;4.00;;;;;;;25.79;52.58;100089.47;5017044;28;20490;-76
2023/06/07 10:19:41;;;;;;;15.43;4.13;;;;;;;25.43;51.87;99841.75;5009918;28;20057;-76
2023/06/07 10:22:21;;;;;;;11.88;4.13;;;;;;;24.02;52.52;99556.47;5010742;28;20070;-76
2023/06/07 10:25:01;;;;;;;8.32;4.50;;;;;;;24.21;53.32;99808.34;5016975;28;20037;-75
2023/06/07 10:27:31;;;;;;;11.30;4.07;;;;;;;25.13;51.98;99959.34;5015410;28;20099;-75
2023/06/07 10:30:14;;;;;;;9.77;3.95;;;;;;;25.23;51.81;99916.44;5012605;28;20495;-75
2023/06/07 10:32:41;;;;;;;7.10;3.30;;;;;;;26.10;50.07;99965.13;5010629;28;20034;-75
2023/06/07 10:35:09;;;;;;;11.63;4.25;;;;;;;26.50;48.46;99820.88;5011263;28;20013;-75
2023/06/07 10:37:36;;;;;;;8.77;4.00;;;;;;;26.62;48.66;99861.56;5010619;28;20037;-75
2023/06/07 10:40:09;;;;;;;11.82;3.50;;;;;;;26.22;47.02;99479.78;5013133;28;20022;-75
2023/06/07 10:42:35;;;;;;;5.63;3.08;;;;;;;24.93;47.47;99168.53;5009764;28;20029;-76
2023/06/07 10:45:00;;;;;;;6.97;3.65;;;;;;;25.00;48.28;99415.47;5011603;28;20043;-75
2023/06/07 10:47:26;;;;;;;10.73;4.13;;;;;;;25.67;47.79;99557.59;5010310;28;20483;-75
2023/06/07 10:49:52;;;;;;;9.75;3.47;;;;;;;25.96;46.81;99536.78;4994013;28;20033;-76
2023/06/07 10:52:18;;;;;;;8.45;3.45;;;;;;;25.93;47.30;99565.53;5011482;28;20044;-76
2023/06/07 10:54:45;;;;;;;9.43;3.53;;;;;;;25.49;46.89;99358.91;5010267;28;20042;-76
2023/06/07 10:57:10;;;;;;;11.00;3.35;;;;;;;26.00;47.82;99735.50;5012003;28;20033;-76
2023/06/07 10:59:37;;;;;;;8.00;3.22;;;;;;;27.38;46.42;99995.22;5010924;28;20021;-76
2023/06/07 11:02:21;;;;;;;6.78;2.90;;;;;;;26.18;44.07;99145.91;5017031;28;20052;-76
2023/06/07 11:04:54;;;;;;;10.05;3.38;;;;;;;25.80;45.20;99213.56;5028759;28;20037;-75
2023/06/07 11:07:22;;;;;;;7.75;3.10;;;;;;;25.72;45.34;99271.66;5016398;28;20065;-76
2023/06/07 11:10:00;;;;;;;6.75;3.13;;;;;;;25.31;46.21;99281.31;5011262;28;20060;-76
2023/06/07 11:12:45;;;;;;;9.50;3.45;;;;;;;26.48;45.28;99560.38;5015317;28;20033;-75
2023/06/07 11:15:17;;;;;;;;;;;;;;;26.49;43.42;99282.06;4999354;28;20045;-74
2023/06/07 11:17:53;;;;;;;13.18;3.20;;;;;;;26.73;43.48;99374.94;5012339;28;19913;-75